Time;durP1;ratioP1;P1;durP2;ratioP2;P2;SDS_P1;SDS_P2;PMS_P1;PMS_P2;Temp;Humidity;BMP_temperature;BMP_pressure;BME280_temperature;BME280_humidity;BME280_pressure;Samples;Min_cycle;Max_cycle;Signal;HPM_P1;HPM_P2
2021/04/27 00:00:44;;;;;;;4.67;2.40;;;5.60;87.10;;;;;;4384588;32;20159;-59
2021/04/27 00:03:12;;;;;;;5.67;3.30;;;5.50;87.40;;;;;;4380259;32;20232;-60
2021/04/27 00:05:38;;;;;;;6.00;2.60;;;5.50;87.30;;;;;;4380563;32;20175;-60
2021/04/27 00:08:05;;;;;;;7.67;2.60;;;5.40;87.80;;;;;;4397452;32;20160;-60
2021/04/27 00:10:34;;;;;;;5.50;3.10;;;5.50;87.70;;;;;;4398455;32;20160;-61
2021/04/27 00:13:01;;;;;;;4.60;3.00;;;5.40;87.60;;;;;;4381037;32;20140;-60
2021/04/27 00:15:28;;;;;;;4.77;2.53;;;5.40;88.10;;;;;;4398469;32;20152;-63
2021/04/27 00:17:55;;;;;;;6.87;2.53;;;5.40;87.90;;;;;;4376842;32;20254;-60
2021/04/27 00:20:24;;;;;;;3.37;2.40;;;5.30;88.10;;;;;;4380333;32;20182;-60
2021/04/27 00:22:54;;;;;;;5.20;2.70;;;5.30;88.60;;;;;;4377286;32;20607;-61
2021/04/27 00:25:20;;;;;;;8.80;3.67;;;5.30;88.40;;;;;;4389257;32;20209;-61
2021/04/27 00:27:49;;;;;;;5.97;2.70;;;5.30;88.70;;;;;;4381923;32;21326;-60
2021/04/27 00:30:17;;;;;;;7.60;2.97;;;5.20;88.50;;;;;;4386894;32;20572;-60
2021/04/27 00:32:44;;;;;;;4.37;3.03;;;5.20;88.60;;;;;;4386958;32;20564;-60
2021/04/27 00:35:11;;;;;;;8.37;4.00;;;5.20;88.80;;;;;;4387378;32;20140;-60
2021/04/27 00:37:39;;;;;;;6.97;3.00;;;5.20;89.10;;;;;;4385092;32;20148;-60
2021/04/27 00:40:07;;;;;;;8.60;3.20;;;5.10;90.00;;;;;;4401979;32;20160;-60
2021/04/27 00:42:39;;;;;;;6.23;3.10;;;5.10;89.80;;;;;;4387469;32;20162;-61
2021/04/27 00:45:10;;;;;;;5.60;2.87;;;5.10;89.70;;;;;;4384033;32;20200;-61
2021/04/27 00:47:37;;;;;;;5.90;2.80;;;5.10;89.80;;;;;;4396391;32;20159;-59
2021/04/27 00:50:06;;;;;;;5.47;3.03;;;5.10;89.70;;;;;;4386845;32;20218;-60
2021/04/27 00:52:34;;;;;;;4.90;3.07;;;5.10;89.80;;;;;;4383977;32;20163;-60
2021/04/27 00:55:05;;;;;;;9.37;3.27;;;5.00;90.00;;;;;;4383437;32;20234;-61
2021/04/27 00:57:31;;;;;;;5.13;2.30;;;5.00;90.20;;;;;;4388917;32;20171;-60
2021/04/27 00:59:58;;;;;;;6.27;3.20;;;5.00;90.10;;;;;;4378537;32;20262;-61
2021/04/27 01:02:25;;;;;;;6.40;3.20;;;5.00;90.20;;;;;;4382764;32;20146;-61
2021/04/27 01:04:55;;;;;;;7.10;3.07;;;5.00;90.20;;;;;;4390996;32;20144;-60
2021/04/27 01:07:29;;;;;;;6.33;3.40;;;4.90;90.40;;;;;;4382618;32;20583;-61
2021/04/27 01:10:01;;;;;;;6.63;3.17;;;4.90;90.30;;;;;;4378202;32;20171;-61
2021/04/27 01:12:33;;;;;;;6.67;3.70;;;4.90;90.60;;;;;;4382196;32;20163;-60
2021/04/27 01:15:05;;;;;;;7.23;2.87;;;4.90;90.40;;;;;;4391047;32;20142;-61
2021/04/27 01:17:36;;;;;;;6.20;3.40;;;4.80;90.60;;;;;;4385497;32;20593;-61
2021/04/27 01:20:07;;;;;;;10.83;3.57;;;4.80;90.50;;;;;;4389749;32;20558;-61
2021/04/27 01:22:47;;;;;;;4.83;3.10;;;4.80;90.50;;;;;;4381240;32;20144;-61
2021/04/27 01:25:19;;;;;;;6.20;3.20;;;4.80;90.50;;;;;;4379597;32;20560;-61
2021/04/27 01:27:49;;;;;;;6.47;3.20;;;4.70;90.60;;;;;;4385575;32;20303;-60
2021/04/27 01:30:16;;;;;;;4.23;3.13;;;4.70;90.80;;;;;;4379155;32;20241;-59
2021/04/27 01:32:43;;;;;;;5.10;3.67;;;4.70;90.80;;;;;;4390817;32;20143;-60
2021/04/27 01:35:16;;;;;;;6.87;3.43;;;4.60;90.90;;;;;;4388298;32;20210;-63
2021/04/27 01:37:42;;;;;;;5.67;3.07;;;4.60;90.90;;;;;;4374058;32;20566;-63
2021/04/27 01:40:10;;;;;;;8.77;3.60;;;4.50;91.10;;;;;;4385872;32;20590;-60
2021/04/27 01:42:37;;;;;;;4.83;3.00;;;4.50;91.00;;;;;;4377420;32;20187;-62
2021/04/27 01:45:06;;;;;;;4.30;3.37;;;4.50;91.10;;;;;;4384004;32;20591;-62
2021/04/27 01:47:35;;;;;;;7.40;3.47;;;4.50;91.20;;;;;;4390111;32;20496;-62
2021/04/27 01:50:02;;;;;;;6.20;3.37;;;4.50;91.30;;;;;;4390592;32;20176;-61
2021/04/27 01:52:32;;;;;;;10.93;3.10;;;4.40;91.40;;;;;;4388116;32;20186;-62
2021/04/27 01:54:59;;;;;;;5.53;4.23;;;4.30;91.60;;;;;;4386255;32;20277;-60
2021/04/27 01:57:25;;;;;;;6.00;3.73;;;4.20;91.70;;;;;;4390261;32;20591;-60
2021/04/27 01:59:52;;;;;;;8.87;4.60;;;4.20;91.80;;;;;;4388828;32;20190;-61
2021/04/27 02:02:22;;;;;;;9.10;4.70;;;4.20;91.90;;;;;;4382902;32;20143;-64
2021/04/27 02:04:49;;;;;;;7.80;3.90;;;4.20;92.00;;;;;;4389554;32;20203;-62
2021/04/27 02:07:18;;;;;;;5.93;4.00;;;4.10;92.10;;;;;;4389016;32;20220;-61
2021/04/27 02:09:45;;;;;;;9.33;4.00;;;4.00;92.10;;;;;;4385394;32;20153;-61
2021/04/27 02:12:12;;;;;;;6.33;3.87;;;4.00;92.30;;;;;;4381391;32;20150;-62
2021/04/27 02:14:41;;;;;;;8.23;3.97;;;4.00;92.30;;;;;;4388964;32;20184;-61
2021/04/27 02:17:13;;;;;;;7.17;4.33;;;4.00;92.30;;;;;;4388693;32;20293;-62
2021/04/27 02:19:41;;;;;;;8.97;3.80;;;3.90;92.30;;;;;;4381993;32;20146;-60
2021/04/27 02:22:09;;;;;;;10.50;4.33;;;3.90;92.40;;;;;;4400374;32;20557;-62
2021/04/27 02:24:40;;;;;;;10.23;4.40;;;3.90;92.50;;;;;;4397251;32;20172;-61
2021/04/27 02:27:11;;;;;;;8.83;4.00;;;3.90;92.50;;;;;;4386868;32;20195;-63
2021/04/27 02:29:39;;;;;;;8.80;4.60;;;3.80;92.50;;;;;;4380138;32;20221;-63
2021/04/27 02:32:06;;;;;;;6.43;4.23;;;3.80;92.60;;;;;;4384282;32;20167;-63
2021/04/27 02:34:33;;;;;;;6.40;3.53;;;3.80;92.40;;;;;;4383642;32;20613;-62
2021/04/27 02:37:00;;;;;;;10.07;3.93;;;3.80;92.50;;;;;;4386714;32;20597;-63
2021/04/27 02:39:27;;;;;;;4.03;3.63;;;3.80;92.70;;;;;;4390949;32;20189;-62
2021/04/27 02:41:53;;;;;;;6.27;4.07;;;3.70;92.70;;;;;;4379594;32;20624;-62
2021/04/27 02:44:19;;;;;;;11.63;4.17;;;3.70;92.80;;;;;;4393273;32;20180;-60
2021/04/27 02:46:49;;;;;;;4.53;3.57;;;3.80;92.80;;;;;;4383677;32;20641;-60
2021/04/27 02:49:16;;;;;;;8.37;4.13;;;3.80;92.70;;;;;;4399699;32;20318;-60
2021/04/27 02:51:45;;;;;;;8.33;4.07;;;3.70;92.70;;;;;;4397024;32;20175;-63
2021/04/27 02:54:12;;;;;;;5.53;3.50;;;3.70;92.90;;;;;;4378797;32;20233;-60
2021/04/27 02:56:39;;;;;;;8.33;4.37;;;3.70;92.80;;;;;;4380785;32;20145;-62
2021/04/27 02:59:06;;;;;;;10.33;4.13;;;3.60;93.00;;;;;;4379475;32;20146;-63
2021/04/27 03:01:33;;;;;;;4.83;4.00;;;3.60;93.00;;;;;;4386886;32;20222;-61
2021/04/27 03:04:00;;;;;;;4.17;3.50;;;3.60;93.10;;;;;;4395580;32;20149;-60
2021/04/27 03:06:26;;;;;;;6.10;4.00;;;3.60;93.00;;;;;;4401388;32;20192;-62
2021/04/27 03:08:54;;;;;;;9.23;4.23;;;3.60;93.00;;;;;;4387343;32;20214;-59
2021/04/27 03:11:22;;;;;;;7.83;3.80;;;3.60;93.20;;;;;;4383728;32;20150;-60
2021/04/27 03:13:53;;;;;;;7.00;4.50;;;3.50;93.20;;;;;;4379416;32;20172;-59
2021/04/27 03:16:19;;;;;;;7.20;3.90;;;3.50;93.10;;;;;;4385953;32;20140;-62
2021/04/27 03:18:46;;;;;;;8.50;4.13;;;3.50;93.10;;;;;;4383001;32;20241;-59
2021/04/27 03:21:12;;;;;;;7.53;4.80;;;3.50;93.20;;;;;;4384723;32;20208;-62
2021/04/27 03:23:38;;;;;;;5.93;3.80;;;3.50;93.20;;;;;;4400140;32;20183;-60
2021/04/27 03:26:06;;;;;;;5.07;4.17;;;3.50;93.20;;;;;;4399426;32;20162;-60
2021/04/27 03:28:34;;;;;;;6.20;4.00;;;3.40;93.20;;;;;;4383605;32;20199;-62
2021/04/27 03:31:00;;;;;;;7.20;4.27;;;3.40;93.40;;;;;;4397652;32;20140;-60
2021/04/27 03:33:27;;;;;;;9.83;4.50;;;3.50;93.20;;;;;;4401813;32;20581;-61
2021/04/27 03:35:54;;;;;;;7.73;4.73;;;3.50;93.20;;;;;;4388147;32;20168;-64
2021/04/27 03:38:22;;;;;;;8.83;3.83;;;3.40;93.30;;;;;;4384799;32;20148;-62
2021/04/27 03:40:48;;;;;;;6.60;3.83;;;3.40;93.30;;;;;;4385660;32;20579;-64
2021/04/27 03:43:14;;;;;;;8.43;4.67;;;3.30;93.60;;;;;;4384030;32;20159;-62
2021/04/27 03:45:42;;;;;;;6.33;4.03;;;3.40;93.50;;;;;;4389097;32;20148;-62
2021/04/27 03:48:15;;;;;;;5.70;3.93;;;3.40;93.50;;;;;;4387983;32;20175;-63
2021/04/27 03:50:42;;;;;;;5.80;4.40;;;3.30;93.40;;;;;;4395273;32;20151;-60
2021/04/27 03:53:09;;;;;;;6.83;4.10;;;3.30;93.60;;;;;;4385929;32;20155;-60
2021/04/27 03:55:36;;;;;;;7.57;4.40;;;3.30;93.70;;;;;;4384995;32;20202;-60
2021/04/27 03:58:03;;;;;;;7.00;4.37;;;3.30;93.60;;;;;;4389127;32;20218;-61
2021/04/27 04:00:36;;;;;;;7.13;3.93;;;3.30;93.70;;;;;;4387579;32;20159;-60
2021/04/27 04:03:03;;;;;;;9.17;4.10;;;3.30;93.80;;;;;;4382853;32;20148;-59
2021/04/27 04:05:31;;;;;;;11.43;4.73;;;3.30;93.70;;;;;;4376844;32;20251;-59
2021/04/27 04:07:58;;;;;;;9.40;4.40;;;3.30;93.70;;;;;;4387626;32;20164;-61
2021/04/27 04:10:24;;;;;;;9.97;4.70;;;3.20;93.70;;;;;;4381754;32;20148;-61
2021/04/27 04:12:55;;;;;;;8.80;4.67;;;3.20;93.60;;;;;;4388466;32;20170;-62
2021/04/27 04:15:22;;;;;;;7.27;4.63;;;3.20;93.80;;;;;;4387027;32;20184;-61
2021/04/27 04:17:49;;;;;;;8.40;4.40;;;3.20;94.00;;;;;;4384781;32;20152;-61
2021/04/27 04:20:22;;;;;;;9.27;4.77;;;3.20;93.90;;;;;;4389465;32;20175;-59
2021/04/27 04:22:58;;;;;;;8.27;5.17;;;3.20;93.90;;;;;;4398085;32;20160;-62
2021/04/27 04:25:26;;;;;;;5.47;4.10;;;3.20;93.90;;;;;;4384555;32;20443;-58
2021/04/27 04:27:55;;;;;;;10.23;4.93;;;3.20;93.90;;;;;;4382635;32;20145;-61
2021/04/27 04:30:23;;;;;;;5.63;4.33;;;3.20;93.90;;;;;;4378747;32;20153;-63
2021/04/27 04:32:53;;;;;;;6.23;4.50;;;3.20;94.00;;;;;;4380919;32;20152;-64
2021/04/27 04:35:22;;;;;;;7.03;4.10;;;3.10;94.30;;;;;;4387221;32;20472;-59
2021/04/27 04:37:50;;;;;;;7.83;4.87;;;3.10;94.10;;;;;;4378045;32;20163;-60
2021/04/27 04:40:17;;;;;;;8.07;4.80;;;3.20;94.10;;;;;;4389495;32;20202;-62
2021/04/27 04:42:44;;;;;;;8.60;5.10;;;3.20;93.90;;;;;;4387171;32;20168;-62
2021/04/27 04:45:13;;;;;;;10.90;4.90;;;3.20;94.20;;;;;;4393854;32;20137;-64
2021/04/27 04:47:40;;;;;;;9.30;4.97;;;3.20;94.10;;;;;;4381398;32;20159;-59
2021/04/27 04:50:09;;;;;;;9.93;5.37;;;3.30;94.10;;;;;;4376904;32;20198;-62
2021/04/27 04:52:36;;;;;;;8.17;4.77;;;3.30;94.00;;;;;;4380141;32;20144;-62
2021/04/27 04:55:06;;;;;;;10.73;5.13;;;3.30;94.10;;;;;;4374106;32;20167;-63
2021/04/27 04:57:33;;;;;;;6.83;4.27;;;3.40;93.90;;;;;;4383298;32;20159;-63
2021/04/27 04:59:59;;;;;;;8.50;4.77;;;3.40;93.90;;;;;;4391124;32;20211;-60
2021/04/27 05:02:29;;;;;;;8.47;5.33;;;3.50;93.80;;;;;;4376848;32;20572;-63
2021/04/27 05:04:55;;;;;;;11.03;4.90;;;4.90;93.40;;;;;;4373363;32;20685;-60
2021/04/27 05:07:26;;;;;;;8.13;4.13;;;7.30;89.20;;;;;;4373358;32;20581;-59
2021/04/27 05:23:23;;;;;;;6.80;4.10;;;9.50;77.50;;;;;;4381739;32;20175;-63
2021/04/27 05:26:02;;;;;;;7.83;4.30;;;10.40;75.20;;;;;;4389330;32;20207;-64
2021/04/27 05:28:31;;;;;;;9.17;4.23;;;10.80;71.20;;;;;;4387884;32;20148;-61
2021/04/27 05:30:58;;;;;;;10.20;4.10;;;10.50;71.90;;;;;;4386057;32;20141;-61
2021/04/27 05:33:24;;;;;;;8.67;4.10;;;10.70;70.50;;;;;;4395905;32;20137;-61
2021/04/27 05:35:51;;;;;;;10.03;3.83;;;10.60;70.20;;;;;;4390182;32;20145;-59
2021/04/27 05:38:17;;;;;;;5.93;4.23;;;9.90;71.40;;;;;;4392980;32;20202;-60
2021/04/27 05:40:49;;;;;;;4.93;4.07;;;9.00;74.00;;;;;;4392302;32;20140;-59
2021/04/27 05:43:19;;;;;;;5.87;4.17;;;8.20;76.60;;;;;;4399288;32;20175;-61
2021/04/27 05:45:45;;;;;;;10.67;4.87;;;7.60;79.20;;;;;;4387723;32;20171;-60
2021/04/27 05:48:12;;;;;;;7.23;4.50;;;7.20;81.10;;;;;;4396511;32;20214;-59
2021/04/27 05:50:42;;;;;;;8.30;4.63;;;7.10;83.50;;;;;;4389927;32;20156;-59
2021/04/27 05:53:08;;;;;;;7.00;4.27;;;7.20;82.90;;;;;;4392228;32;20159;-63
2021/04/27 05:55:38;;;;;;;5.77;4.53;;;8.30;81.10;;;;;;4388956;32;20596;-62
2021/04/27 05:58:07;;;;;;;7.03;4.20;;;10.10;77.60;;;;;;4393675;32;20226;-62
2021/04/27 06:00:33;;;;;;;7.40;4.33;;;11.40;70.60;;;;;;4398440;32;20171;-62
2021/04/27 06:03:02;;;;;;;5.53;4.30;;;12.20;67.40;;;;;;4382946;32;20183;-62
2021/04/27 06:05:28;;;;;;;6.90;4.30;;;12.20;66.50;;;;;;4382552;32;20517;-63
2021/04/27 06:07:54;;;;;;;7.30;4.67;;;11.60;66.70;;;;;;4383688;32;20495;-61
2021/04/27 06:10:26;;;;;;;7.83;4.73;;;11.00;69.10;;;;;;4380882;32;20187;-60
2021/04/27 06:12:55;;;;;;;7.97;4.50;;;10.30;69.80;;;;;;4392594;32;20143;-61
2021/04/27 06:15:22;;;;;;;5.23;4.30;;;10.00;71.60;;;;;;4387551;32;20206;-59
2021/04/27 06:17:54;;;;;;;6.10;4.30;;;9.90;73.60;;;;;;4385247;32;20189;-63
2021/04/27 06:20:21;;;;;;;7.23;4.30;;;10.10;71.40;;;;;;4378822;32;20149;-63
2021/04/27 06:22:49;;;;;;;8.97;4.73;;;10.20;70.80;;;;;;4389363;32;20207;-63
2021/04/27 06:25:20;;;;;;;11.23;4.83;;;10.40;70.60;;;;;;4386539;32;20206;-60
2021/04/27 06:27:51;;;;;;;7.80;4.87;;;10.60;70.30;;;;;;4388279;32;20241;-59
2021/04/27 06:30:19;;;;;;;6.33;4.57;;;10.70;68.80;;;;;;4379834;32;20145;-64
2021/04/27 06:32:52;;;;;;;8.80;4.80;;;10.60;69.10;;;;;;4383537;32;20170;-61
2021/04/27 06:35:28;;;;;;;8.57;4.30;;;10.60;69.20;;;;;;4384290;32;20171;-61
2021/04/27 06:37:57;;;;;;;5.27;4.40;;;10.70;68.60;;;;;;4391585;32;20136;-61
2021/04/27 06:40:26;;;;;;;10.97;5.10;;;10.60;68.60;;;;;;4380323;32;20597;-60
2021/04/27 06:43:01;;;;;;;8.60;4.97;;;10.60;68.40;;;;;;4392018;32;20148;-64
2021/04/27 06:45:44;;;;;;;7.80;4.20;;;10.70;68.80;;;;;;4389065;32;20195;-59
2021/04/27 06:48:19;;;;;;;9.00;4.47;;;10.60;68.10;;;;;;4383520;32;20160;-61
2021/04/27 06:50:46;;;;;;;5.80;4.80;;;10.50;68.90;;;;;;4377474;32;20167;-60
2021/04/27 06:53:14;;;;;;;7.70;4.50;;;10.50;69.60;;;;;;4382326;32;20654;-60
2021/04/27 06:55:43;;;;;;;7.77;4.93;;;10.60;69.00;;;;;;4381487;32;20156;-61
2021/04/27 06:58:11;;;;;;;10.10;4.73;;;10.90;68.80;;;;;;4392446;32;20142;-64
2021/04/27 07:00:39;;;;;;;6.57;4.20;;;11.00;68.00;;;;;;4389013;32;20167;-63
2021/04/27 07:03:07;;;;;;;9.97;5.30;;;11.20;68.00;;;;;;4379300;32;20144;-63
2021/04/27 07:05:35;;;;;;;8.47;5.20;;;11.20;66.70;;;;;;4375485;32;20535;-61
2021/04/27 07:08:03;;;;;;;6.97;4.63;;;11.20;66.90;;;;;;4393459;32;20219;-60
2021/04/27 07:10:29;;;;;;;6.83;4.70;;;11.30;66.50;;;;;;4380392;32;20152;-61
2021/04/27 07:12:58;;;;;;;7.93;5.20;;;11.50;66.80;;;;;;4399504;32;20190;-62
2021/04/27 07:15:25;;;;;;;7.43;4.67;;;11.70;65.60;;;;;;4396466;32;20149;-65
2021/04/27 07:17:55;;;;;;;7.43;5.20;;;11.90;64.70;;;;;;4406660;32;20160;-62
2021/04/27 07:20:28;;;;;;;9.10;4.50;;;12.20;64.40;;;;;;4382457;32;20495;-60
2021/04/27 07:26:52;;;;;;;6.93;4.80;;;12.90;62.40;;;;;;4379832;32;20574;-60
2021/04/27 07:29:18;;;;;;;7.90;4.60;;;13.50;60.50;;;;;;4380844;32;20153;-61
2021/04/27 07:31:45;;;;;;;10.37;5.20;;;14.50;58.60;;;;;;4381892;32;20174;-59
2021/04/27 07:34:14;;;;;;;7.17;4.30;;;15.60;55.90;;;;;;4381992;32;20163;-62
2021/04/27 07:36:41;;;;;;;6.23;5.00;;;15.80;53.80;;;;;;4386401;32;20213;-65
2021/04/27 07:39:09;;;;;;;7.30;4.83;;;15.70;53.20;;;;;;4377054;32;20237;-60
2021/04/27 07:41:36;;;;;;;8.23;4.70;;;15.20;54.00;;;;;;4382341;32;20457;-61
2021/04/27 07:44:04;;;;;;;9.13;4.63;;;15.10;55.10;;;;;;4385361;32;20228;-60
2021/04/27 07:46:31;;;;;;;10.40;5.27;;;15.20;54.20;;;;;;4378558;32;20188;-60
2021/04/27 07:48:57;;;;;;;7.53;4.37;;;15.80;52.90;;;;;;4384258;32;20207;-61
2021/04/27 07:51:27;;;;;;;5.17;4.03;;;18.20;51.10;;;;;;4387347;32;20491;-60
2021/04/27 07:53:53;;;;;;;6.53;4.30;;;21.20;42.50;;;;;;4387876;32;20153;-61
2021/04/27 07:56:19;;;;;;;9.27;4.50;;;22.80;38.50;;;;;;4379387;32;20438;-60
2021/04/27 07:58:46;;;;;;;7.13;4.30;;;23.50;36.50;;;;;;4380394;32;20168;-61
2021/04/27 08:01:16;;;;;;;8.37;4.63;;;24.10;35.20;;;;;;4381213;32;20157;-62
2021/04/27 08:03:42;;;;;;;7.53;4.60;;;23.70;34.80;;;;;;4379909;32;20164;-60
2021/04/27 08:06:10;;;;;;;6.43;4.97;;;23.40;35.00;;;;;;4381343;32;20211;-61
2021/04/27 08:08:38;;;;;;;5.63;4.70;;;23.50;34.20;;;;;;4375482;32;20243;-62
2021/04/27 08:11:05;;;;;;;7.57;4.77;;;23.60;33.70;;;;;;4376242;32;20149;-60
2021/04/27 08:13:31;;;;;;;8.33;5.23;;;23.60;34.50;;;;;;4381011;32;20168;-62
2021/04/27 08:15:58;;;;;;;7.00;4.77;;;23.60;34.20;;;;;;4381337;32;20176;-61
2021/04/27 08:18:28;;;;;;;6.50;4.70;;;23.70;34.40;;;;;;4385070;32;20215;-60
2021/04/27 08:20:55;;;;;;;5.03;4.20;;;23.70;35.00;;;;;;4385100;32;20148;-63
2021/04/27 08:23:21;;;;;;;5.10;4.60;;;23.90;33.70;;;;;;4387629;32;20198;-64
2021/04/27 08:25:48;;;;;;;5.63;4.47;;;24.50;33.40;;;;;;4377611;32;20160;-65
2021/04/27 08:28:16;;;;;;;9.67;5.17;;;26.40;32.00;;;;;;4390818;32;20250;-62
2021/04/27 08:30:42;;;;;;;7.17;5.10;;;27.70;30.90;;;;;;4392166;32;20162;-62
2021/04/27 08:33:08;;;;;;;7.13;4.50;;;28.80;30.20;;;;;;4387114;32;20147;-59
2021/04/27 08:35:36;;;;;;;6.63;4.97;;;31.00;29.30;;;;;;4380929;32;20187;-60
2021/04/27 08:38:02;;;;;;;4.93;4.40;;;32.20;28.40;;;;;;4396149;32;20231;-61
2021/04/27 08:40:29;;;;;;;6.73;4.80;;;34.80;27.80;;;;;;4390383;32;20156;-59
2021/04/27 08:42:55;;;;;;;5.70;4.40;;;37.20;26.30;;;;;;4396352;32;20148;-60
2021/04/27 08:45:22;;;;;;;9.90;4.78;;;39.50;25.70;;;;;;4393428;32;20266;-66
2021/04/27 08:47:48;;;;;;;6.28;4.12;;;40.80;24.80;;;;;;4388124;32;20163;-62
2021/04/27 08:50:16;;;;;;;8.02;4.45;;;41.40;24.60;;;;;;4392123;32;20211;-65
2021/04/27 08:52:44;;;;;;;6.75;4.30;;;41.80;24.30;;;;;;4386954;32;20214;-62
2021/04/27 08:55:11;;;;;;;6.30;4.85;;;41.70;23.60;;;;;;4384583;32;20670;-62
2021/04/27 08:57:37;;;;;;;5.90;4.37;;;41.70;23.50;;;;;;4390157;32;20218;-63
2021/04/27 09:00:07;;;;;;;5.68;3.97;;;41.50;24.00;;;;;;4392248;32;20155;-65
2021/04/27 09:02:36;;;;;;;7.43;5.10;;;42.10;23.60;;;;;;4397117;32;20163;-65
2021/04/27 09:05:03;;;;;;;5.00;3.90;;;41.90;24.00;;;;;;4393255;32;20491;-62
2021/04/27 09:07:44;;;;;;;7.50;4.65;;;42.40;23.30;;;;;;4388067;32;20156;-64
2021/04/27 09:10:16;;;;;;;7.32;4.60;;;41.80;23.20;;;;;;4377901;32;20160;-61
2021/04/27 09:12:48;;;;;;;9.32;4.90;;;41.10;23.50;;;;;;4384928;32;20207;-63
2021/04/27 09:15:29;;;;;;;9.45;4.40;;;40.80;23.20;;;;;;4387720;32;20227;-61
2021/04/27 09:17:56;;;;;;;5.87;4.62;;;40.00;23.40;;;;;;4384116;32;20538;-61
2021/04/27 09:20:23;;;;;;;5.80;4.40;;;37.10;24.10;;;;;;4383541;32;20580;-64
2021/04/27 09:22:49;;;;;;;6.33;4.00;;;31.70;25.20;;;;;;4383972;32;20178;-62
2021/04/27 09:25:25;;;;;;;5.97;4.37;;;27.20;26.70;;;;;;4383312;32;20207;-65
2021/04/27 09:27:52;;;;;;;5.90;4.13;;;23.80;29.00;;;;;;4379021;32;20191;-62
2021/04/27 09:30:20;;;;;;;5.27;4.77;;;21.70;30.60;;;;;;4384912;32;20140;-62
2021/04/27 09:32:54;;;;;;;5.50;4.37;;;20.50;32.00;;;;;;4383523;32;20270;-60
2021/04/27 09:35:25;;;;;;;7.47;4.50;;;19.50;32.50;;;;;;4382018;32;20671;-61
2021/04/27 09:38:17;;;;;;;5.87;4.50;;;18.80;32.60;;;;;;4378535;32;20140;-60
2021/04/27 09:40:53;;;;;;;4.67;4.27;;;18.30;34.50;;;;;;4396826;32;20197;-64
2021/04/27 09:43:24;;;;;;;8.43;4.20;;;18.00;33.40;;;;;;4387703;32;20147;-60
2021/04/27 09:45:52;;;;;;;7.40;4.33;;;17.50;33.40;;;;;;4380559;32;20616;-61
2021/04/27 09:48:36;;;;;;;7.30;4.67;;;16.90;34.10;;;;;;4383576;32;20175;-62
2021/04/27 09:51:20;;;;;;;5.73;4.17;;;16.50;35.40;;;;;;4384095;32;20581;-61
2021/04/27 09:53:50;;;;;;;6.30;4.30;;;16.50;35.80;;;;;;4391795;32;20167;-60
2021/04/27 09:56:34;;;;;;;5.03;4.37;;;16.50;35.40;;;;;;4388142;32;20152;-60
2021/04/27 09:59:05;;;;;;;7.93;4.20;;;16.60;35.70;;;;;;4382455;32;20572;-65
2021/04/27 10:01:34;;;;;;;7.27;4.87;;;16.50;35.70;;;;;;4379876;32;20145;-60
2021/04/27 10:04:04;;;;;;;7.23;4.30;;;16.40;35.70;;;;;;4399020;32;20606;-61
2021/04/27 10:06:30;;;;;;;5.43;4.47;;;16.40;36.60;;;;;;4384243;32;20662;-60
2021/04/27 10:09:00;;;;;;;8.50;4.33;;;16.50;35.90;;;;;;4384353;32;20163;-60
2021/04/27 10:11:28;;;;;;;5.93;4.13;;;16.70;36.40;;;;;;4393097;32;20204;-63
2021/04/27 10:13:56;;;;;;;4.73;4.23;;;16.80;35.60;;;;;;4385826;32;20484;-60
2021/04/27 10:16:23;;;;;;;8.33;4.80;;;16.70;35.20;;;;;;4381728;32;20558;-61
2021/04/27 10:18:49;;;;;;;7.47;4.47;;;16.60;34.90;;;;;;4395706;32;20181;-63
2021/04/27 10:21:16;;;;;;;5.50;3.97;;;16.50;35.40;;;;;;4389625;32;20511;-60
2021/04/27 10:23:48;;;;;;;7.60;4.00;;;16.40;36.20;;;;;;4396454;32;20568;-61
2021/04/27 10:26:15;;;;;;;4.60;3.67;;;16.30;34.70;;;;;;4402223;32;20148;-60
2021/04/27 10:29:00;;;;;;;8.47;3.80;;;16.10;34.20;;;;;;4390227;32;20215;-59
2021/04/27 10:31:27;;;;;;;6.63;3.97;;;16.10;35.30;;;;;;4379522;32;20163;-64
2021/04/27 10:34:07;;;;;;;11.53;4.50;;;16.20;35.70;;;;;;4389225;32;20209;-60
2021/04/27 10:36:36;;;;;;;9.33;4.53;;;16.20;35.10;;;;;;4394417;32;20235;-60
2021/04/27 10:39:05;;;;;;;7.33;5.33;;;16.20;35.40;;;;;;4387906;32;20659;-61
2021/04/27 10:41:47;;;;;;;8.70;4.50;;;16.20;35.10;;;;;;4384697;32;20145;-62
2021/04/27 10:44:16;;;;;;;6.93;4.00;;;16.20;36.10;;;;;;4397539;32;20241;-60
2021/04/27 10:47:12;;;;;;;6.00;4.63;;;16.40;36.40;;;;;;4382023;32;20319;-60
2021/04/27 10:49:45;;;;;;;5.40;3.80;;;16.50;35.90;;;;;;4379175;32;20149;-59
2021/04/27 10:52:29;;;;;;;6.53;4.07;;;16.60;36.50;;;;;;4384127;32;20148;-62
2021/04/27 10:55:22;;;;;;;5.67;3.77;;;16.50;35.60;;;;;;4385274;32;20150;-59
2021/04/27 10:57:49;;;;;;;6.57;4.13;;;16.50;35.10;;;;;;4387902;32;20152;-61
2021/04/27 11:00:35;;;;;;;6.80;4.37;;;16.60;35.60;;;;;;4379519;32;20696;-62
2021/04/27 11:03:13;;;;;;;7.37;4.00;;;16.50;35.30;;;;;;4386877;32;20219;-60
2021/04/27 11:05:51;;;;;;;7.40;4.30;;;16.50;35.10;;;;;;4384501;32;20148;-60
2021/04/27 11:08:20;;;;;;;5.27;4.27;;;16.60;35.30;;;;;;4381719;32;20183;-60
2021/04/27 11:10:48;;;;;;;6.77;4.17;;;16.60;35.60;;;;;;4386584;32;20483;-59
2021/04/27 11:13:15;;;;;;;5.60;3.47;;;16.60;34.80;;;;;;4377434;32;20152;-59
2021/04/27 11:15:44;;;;;;;5.80;3.80;;;16.60;35.20;;;;;;4383427;32;20141;-61
2021/04/27 11:18:15;;;;;;;5.70;4.00;;;16.50;34.90;;;;;;4383271;32;20168;-61
2021/04/27 11:21:12;;;;;;;5.83;3.90;;;16.50;35.00;;;;;;4386325;32;20140;-61
2021/04/27 11:23:53;;;;;;;5.30;4.03;;;16.50;34.70;;;;;;4381703;32;20148;-60
2021/04/27 11:26:55;;;;;;;6.70;3.40;;;16.50;34.80;;;;;;4382170;32;20176;-64
2021/04/27 11:29:24;;;;;;;6.37;3.73;;;16.60;35.00;;;;;;4376020;32;20175;-60
2021/04/27 11:32:13;;;;;;;4.60;3.70;;;16.70;35.20;;;;;;4385207;32;20635;-63
2021/04/27 11:35:01;;;;;;;6.90;4.27;;;16.80;34.40;;;;;;4384726;32;20203;-61
2021/04/27 11:37:33;;;;;;;6.07;4.07;;;16.70;34.30;;;;;;4388847;32;20183;-61
2021/04/27 11:40:15;;;;;;;5.27;3.83;;;16.50;34.70;;;;;;4376023;32;20167;-61
2021/04/27 11:42:43;;;;;;;7.00;3.93;;;16.60;35.20;;;;;;4380248;32;20145;-61
2021/04/27 11:45:15;;;;;;;4.90;4.10;;;16.70;35.20;;;;;;4387594;32;20164;-59
2021/04/27 11:47:47;;;;;;;5.97;4.23;;;16.70;34.80;;;;;;4397019;32;20430;-60
2021/04/27 11:50:20;;;;;;;4.40;3.67;;;16.60;34.80;;;;;;4391655;32;20502;-60
2021/04/27 11:52:51;;;;;;;5.20;3.90;;;16.60;34.70;;;;;;4385550;32;20132;-60
2021/04/27 11:55:26;;;;;;;5.77;3.80;;;16.70;34.80;;;;;;4400994;32;20938;-60
2021/04/27 11:57:57;;;;;;;4.90;4.00;;;16.80;35.00;;;;;;4385292;32;20221;-63
2021/04/27 12:00:36;;;;;;;6.23;3.87;;;16.70;34.30;;;;;;4394337;32;20152;-61
2021/04/27 12:03:29;;;;;;;5.23;3.67;;;16.80;34.60;;;;;;4386842;32;20575;-62
2021/04/27 12:06:11;;;;;;;7.77;3.57;;;16.80;34.30;;;;;;4394798;32;20212;-61
2021/04/27 12:08:42;;;;;;;4.50;3.30;;;16.80;34.60;;;;;;4394896;32;20192;-63
2021/04/27 12:11:13;;;;;;;7.90;4.20;;;16.80;34.20;;;;;;4395874;32;20151;-60
2021/04/27 12:13:43;;;;;;;5.27;4.00;;;16.70;34.60;;;;;;4398843;32;20152;-60
2021/04/27 12:16:12;;;;;;;3.87;3.47;;;16.80;34.60;;;;;;4380501;32;20611;-63
2021/04/27 12:18:51;;;;;;;5.40;4.23;;;16.80;35.50;;;;;;4401501;32;20594;-62
2021/04/27 12:21:43;;;;;;;7.07;4.20;;;16.70;33.90;;;;;;4377431;32;20194;-60
2021/04/27 12:24:14;;;;;;;9.13;3.60;;;16.60;34.50;;;;;;4376538;32;20226;-64
2021/04/27 12:26:48;;;;;;;8.87;4.03;;;16.70;34.80;;;;;;4397347;32;20207;-60
2021/04/27 12:29:28;;;;;;;5.63;3.70;;;16.60;34.50;;;;;;4394093;32;20169;-61
2021/04/27 12:32:05;;;;;;;6.73;4.17;;;16.60;34.00;;;;;;4387187;32;20140;-62
2021/04/27 12:34:41;;;;;;;7.23;3.43;;;16.60;34.30;;;;;;4381448;32;20189;-62
2021/04/27 12:37:16;;;;;;;4.43;3.77;;;16.80;33.40;;;;;;4311499;32;1953721;-62
2021/04/27 12:39:45;;;;;;;7.07;3.87;;;16.80;34.00;;;;;;4376828;32;20160;-60
2021/04/27 12:42:24;;;;;;;5.67;3.50;;;16.80;34.90;;;;;;4368252;32;20148;-62
2021/04/27 12:44:58;;;;;;;5.93;3.80;;;16.90;35.20;;;;;;4374186;32;20189;-60
2021/04/27 12:47:27;;;;;;;6.03;3.63;;;16.80;34.80;;;;;;4380585;32;20161;-60
2021/04/27 12:50:00;;;;;;;6.53;4.07;;;16.80;35.20;;;;;;4373737;32;20220;-65
2021/04/27 12:52:28;;;;;;;8.07;4.00;;;16.80;35.40;;;;;;4372059;32;20149;-63
2021/04/27 12:55:00;;;;;;;6.57;3.67;;;16.80;34.90;;;;;;4386442;32;20514;-59
2021/04/27 12:57:27;;;;;;;7.47;3.60;;;16.80;35.50;;;;;;4368792;32;20149;-60
2021/04/27 12:59:57;;;;;;;5.40;3.77;;;16.70;35.00;;;;;;4379372;32;20149;-60
2021/04/27 13:02:24;;;;;;;4.47;3.37;;;16.70;35.00;;;;;;4367671;32;20198;-63
2021/04/27 13:04:57;;;;;;;4.73;4.03;;;16.80;34.80;;;;;;4377568;32;20145;-62
2021/04/27 13:07:27;;;;;;;6.37;3.73;;;16.80;35.20;;;;;;4377389;32;20145;-63
2021/04/27 13:09:56;;;;;;;5.00;3.60;;;16.80;34.90;;;;;;4380134;32;20183;-62
2021/04/27 13:12:22;;;;;;;6.30;4.57;;;16.80;35.30;;;;;;4369103;32;20148;-62
2021/04/27 13:14:51;;;;;;;6.43;4.40;;;16.80;35.90;;;;;;4386679;32;20164;-60
2021/04/27 13:17:24;;;;;;;5.43;4.03;;;16.70;36.10;;;;;;4376012;32;20251;-61
2021/04/27 13:19:53;;;;;;;4.30;3.90;;;16.70;36.10;;;;;;4373632;32;20217;-60
2021/04/27 13:22:21;;;;;;;6.53;3.97;;;16.80;36.20;;;;;;4373068;32;20163;-61